sensor_id;sensor_type;location;lat;lon;timestamp;pressure;altitude;pressure_sealevel;temperature;humidity
7441;BME280;29616;51.950;8.572;2023-04-07T00:01:30;99951.59;;;9.13;100.00
7441;BME280;29616;51.950;8.572;2023-04-07T00:03:59;99948.47;;;9.08;100.00
7441;BME280;29616;51.950;8.572;2023-04-07T00:06:29;99945.28;;;9.22;100.00
7441;BME280;29616;51.950;8.572;2023-04-07T00:08:59;99943.13;;;9.26;100.00
7441;BME280;29616;51.950;8.572;2023-04-07T00:11:28;99945.69;;;9.27;100.00
7441;BME280;29616;51.950;8.572;2023-04-07T00:13:59;99942.97;;;9.27;100.00
7441;BME280;29616;51.950;8.572;2023-04-07T00:16:28;99941.81;;;9.30;100.00
7441;BME280;29616;51.950;8.572;2023-04-07T00:18:58;99941.56;;;9.23;100.00
7441;BME280;29616;51.950;8.572;2023-04-07T00:21:26;99924.88;;;9.26;100.00
7441;BME280;29616;51.950;8.572;2023-04-07T00:23:56;99936.91;;;9.33;100.00
7441;BME280;29616;51.950;8.572;2023-04-07T00:26:26;99929.91;;;9.21;100.00
7441;BME280;29616;51.950;8.572;2023-04-07T00:28:57;99924.78;;;9.18;100.00
7441;BME280;29616;51.950;8.572;2023-04-07T00:31:25;99936.97;;;9.14;100.00
7441;BME280;29616;51.950;8.572;2023-04-07T00:33:55;99939.88;;;9.03;100.00
7441;BME280;29616;51.950;8.572;2023-04-07T00:36:25;99939.88;;;9.03;100.00
7441;BME280;29616;51.950;8.572;2023-04-07T00:38:54;99926.34;;;9.11;100.00
7441;BME280;29616;51.950;8.572;2023-04-07T00:41:24;99934.56;;;9.01;100.00
7441;BME280;29616;51.950;8.572;2023-04-07T00:43:52;99930.97;;;9.01;100.00
7441;BME280;29616;51.950;8.572;2023-04-07T00:46:22;99929.38;;;9.08;100.00
7441;BME280;29616;51.950;8.572;2023-04-07T00:48:52;99933.00;;;8.99;100.00
7441;BME280;29616;51.950;8.572;2023-04-07T00:51:21;99920.81;;;8.93;100.00
7441;BME280;29616;51.950;8.572;2023-04-07T00:53:49;99916.19;;;9.03;100.00
7441;BME280;29616;51.950;8.572;2023-04-07T00:56:18;99919.50;;;8.97;100.00
7441;BME280;29616;51.950;8.572;2023-04-07T00:58:48;99920.09;;;9.01;100.00
7441;BME280;29616;51.950;8.572;2023-04-07T01:01:18;99917.19;;;9.12;100.00
7441;BME280;29616;51.950;8.572;2023-04-07T01:03:52;99925.53;;;9.01;100.00
7441;BME280;29616;51.950;8.572;2023-04-07T01:06:25;99913.88;;;9.08;100.00
7441;BME280;29616;51.950;8.572;2023-04-07T01:08:59;99924.09;;;9.06;100.00
7441;BME280;29616;51.950;8.572;2023-04-07T01:11:34;99923.22;;;9.06;100.00
7441;BME280;29616;51.950;8.572;2023-04-07T01:14:08;99916.22;;;8.94;100.00
7441;BME280;29616;51.950;8.572;2023-04-07T01:16:42;99904.44;;;9.03;100.00
7441;BME280;29616;51.950;8.572;2023-04-07T01:19:25;99901.41;;;9.06;100.00
7441;BME280;29616;51.950;8.572;2023-04-07T01:22:02;99908.03;;;9.03;100.00
7441;BME280;29616;51.950;8.572;2023-04-07T01:24:48;99897.28;;;9.02;100.00
7441;BME280;29616;51.950;8.572;2023-04-07T01:27:32;99908.03;;;9.03;100.00
7441;BME280;29616;51.950;8.572;2023-04-07T01:30:03;99899.56;;;9.06;100.00
7441;BME280;29616;51.950;8.572;2023-04-07T01:32:34;99896.53;;;9.00;100.00
7441;BME280;29616;51.950;8.572;2023-04-07T01:35:05;99885.63;;;9.00;100.00
7441;BME280;29616;51.950;8.572;2023-04-07T01:37:39;99893.69;;;9.01;100.00
7441;BME280;29616;51.950;8.572;2023-04-07T01:40:09;99890.50;;;9.06;100.00
7441;BME280;29616;51.950;8.572;2023-04-07T01:42:41;99887.94;;;9.04;100.00
7441;BME280;29616;51.950;8.572;2023-04-07T01:45:11;99901.25;;;9.07;100.00
7441;BME280;29616;51.950;8.572;2023-04-07T01:47:42;99889.09;;;8.92;100.00
7441;BME280;29616;51.950;8.572;2023-04-07T01:50:11;99900.88;;;8.93;100.00
7441;BME280;29616;51.950;8.572;2023-04-07T01:52:41;99898.00;;;8.94;100.00
7441;BME280;29616;51.950;8.572;2023-04-07T01:55:11;99898.47;;;8.80;100.00
7441;BME280;29616;51.950;8.572;2023-04-07T01:57:52;99896.44;;;8.82;100.00
7441;BME280;29616;51.950;8.572;2023-04-07T02:00:23;99896.75;;;8.79;100.00
7441;BME280;29616;51.950;8.572;2023-04-07T02:02:54;99903.63;;;8.74;100.00
7441;BME280;29616;51.950;8.572;2023-04-07T02:05:26;99897.47;;;8.72;100.00
7441;BME280;29616;51.950;8.572;2023-04-07T02:08:01;99898.06;;;8.66;100.00
7441;BME280;29616;51.950;8.572;2023-04-07T02:10:36;99892.03;;;8.72;100.00
7441;BME280;29616;51.950;8.572;2023-04-07T02:13:06;99897.22;;;8.56;100.00
7441;BME280;29616;51.950;8.572;2023-04-07T02:15:37;99890.63;;;8.58;100.00
7441;BME280;29616;51.950;8.572;2023-04-07T02:18:08;99890.63;;;8.58;100.00
7441;BME280;29616;51.950;8.572;2023-04-07T02:20:41;99894.50;;;8.56;100.00
7441;BME280;29616;51.950;8.572;2023-04-07T02:23:12;99894.06;;;8.50;100.00
7441;BME280;29616;51.950;8.572;2023-04-07T02:25:41;99892.06;;;8.43;100.00
7441;BME280;29616;51.950;8.572;2023-04-07T02:28:12;99884.03;;;8.41;100.00
7441;BME280;29616;51.950;8.572;2023-04-07T02:30:42;99882.03;;;8.43;100.00
7441;BME280;29616;51.950;8.572;2023-04-07T02:33:13;99890.06;;;8.45;100.00
7441;BME280;29616;51.950;8.572;2023-04-07T02:35:42;99880.59;;;8.39;100.00
7441;BME280;29616;51.950;8.572;2023-04-07T02:38:11;99883.06;;;8.33;100.00
7441;BME280;29616;51.950;8.572;2023-04-07T02:40:41;99888.16;;;8.26;100.00
7441;BME280;29616;51.950;8.572;2023-04-07T02:43:10;99883.28;;;8.20;100.00
7441;BME280;29616;51.950;8.572;2023-04-07T02:45:41;99897.78;;;8.30;100.00
7441;BME280;29616;51.950;8.572;2023-04-07T02:48:12;99892.59;;;8.18;100.00
7441;BME280;29616;51.950;8.572;2023-04-07T02:50:42;99887.88;;;8.20;100.00
7441;BME280;29616;51.950;8.572;2023-04-07T02:53:12;99892.31;;;8.11;100.00
7441;BME280;29616;51.950;8.572;2023-04-07T02:55:40;99884.16;;;8.11;100.00
7441;BME280;29616;51.950;8.572;2023-04-07T02:58:10;99893.75;;;8.15;100.00
7441;BME280;29616;51.950;8.572;2023-04-07T03:00:43;99888.59;;;8.12;100.00
7441;BME280;29616;51.950;8.572;2023-04-07T03:03:16;99884.28;;;8.10;100.00
7441;BME280;29616;51.950;8.572;2023-04-07T03:05:56;99881.56;;;8.10;100.00
7441;BME280;29616;51.950;8.572;2023-04-07T03:08:27;99885.44;;;8.07;100.00
7441;BME280;29616;51.950;8.572;2023-04-07T03:10:56;99870.53;;;7.92;100.00
7441;BME280;29616;51.950;8.572;2023-04-07T03:13:28;99886.16;;;8.00;100.00
7441;BME280;29616;51.950;8.572;2023-04-07T03:15:58;99889.72;;;8.00;100.00
7441;BME280;29616;51.950;8.572;2023-04-07T03:18:34;99873.69;;;7.97;100.00
7441;BME280;29616;51.950;8.572;2023-04-07T03:21:04;99878.41;;;7.95;100.00
7441;BME280;29616;51.950;8.572;2023-04-07T03:23:34;99895.72;;;7.94;100.00
7441;BME280;29616;51.950;8.572;2023-04-07T03:26:03;99886.69;;;7.93;100.00
7441;BME280;29616;51.950;8.572;2023-04-07T03:28:36;99888.88;;;7.90;100.00
7441;BME280;29616;51.950;8.572;2023-04-07T03:31:07;99874.38;;;7.80;100.00
7441;BME280;29616;51.950;8.572;2023-04-07T03:33:38;99870.97;;;7.87;100.00
7441;BME280;29616;51.950;8.572;2023-04-07T03:36:07;99879.56;;;7.92;100.00
7441;BME280;29616;51.950;8.572;2023-04-07T03:38:38;99879.97;;;7.88;100.00
7441;BME280;29616;51.950;8.572;2023-04-07T03:41:08;99876.25;;;7.89;100.00
7441;BME280;29616;51.950;8.572;2023-04-07T03:43:38;99872.53;;;7.90;100.00
7441;BME280;29616;51.950;8.572;2023-04-07T03:46:09;99880.81;;;7.88;100.00
7441;BME280;29616;51.950;8.572;2023-04-07T03:48:39;99881.69;;;7.89;100.00
7441;BME280;29616;51.950;8.572;2023-04-07T03:51:09;99878.25;;;7.87;100.00
7441;BME280;29616;51.950;8.572;2023-04-07T03:53:38;99880.56;;;7.82;100.00
7441;BME280;29616;51.950;8.572;2023-04-07T03:56:24;99883.72;;;7.87;100.00
7441;BME280;29616;51.950;8.572;2023-04-07T03:58:57;99884.81;;;7.75;100.00
7441;BME280;29616;51.950;8.572;2023-04-07T04:01:33;99884.97;;;7.83;100.00
7441;BME280;29616;51.950;8.572;2023-04-07T04:04:09;99884.53;;;7.78;100.00
7441;BME280;29616;51.950;8.572;2023-04-07T04:06:39;99890.13;;;7.86;100.00
7441;BME280;29616;51.950;8.572;2023-04-07T04:09:18;99876.25;;;7.79;100.00
7441;BME280;29616;51.950;8.572;2023-04-07T04:11:48;99888.13;;;7.88;100.00
7441;BME280;29616;51.950;8.572;2023-04-07T04:14:17;99895.84;;;7.83;100.00
7441;BME280;29616;51.950;8.572;2023-04-07T04:16:56;99892.41;;;7.81;100.00
7441;BME280;29616;51.950;8.572;2023-04-07T04:19:34;99895.84;;;7.83;100.00
7441;BME280;29616;51.950;8.572;2023-04-07T04:22:34;99897.84;;;7.81;100.00
7441;BME280;29616;51.950;8.572;2023-04-07T04:25:03;99895.41;;;7.78;100.00
7441;BME280;29616;51.950;8.572;2023-04-07T04:27:32;99902.03;;;7.85;100.00
7441;BME280;29616;51.950;8.572;2023-04-07T04:30:10;99881.69;;;7.79;100.00
7441;BME280;29616;51.950;8.572;2023-04-07T04:32:50;99902.03;;;7.85;100.00
7441;BME280;29616;51.950;8.572;2023-04-07T04:35:27;99899.16;;;7.77;100.00
7441;BME280;29616;51.950;8.572;2023-04-07T04:38:09;99900.84;;;7.78;100.00
7441;BME280;29616;51.950;8.572;2023-04-07T04:40:44;99894.88;;;7.84;100.00
7441;BME280;29616;51.950;8.572;2023-04-07T04:43:17;99899.16;;;7.86;100.00
7441;BME280;29616;51.950;8.572;2023-04-07T04:45:46;99902.59;;;7.79;100.00
7441;BME280;29616;51.950;8.572;2023-04-07T04:48:24;99905.84;;;7.73;100.00
7441;BME280;29616;51.950;8.572;2023-04-07T04:50:54;99907.88;;;7.71;100.00
7441;BME280;29616;51.950;8.572;2023-04-07T04:53:23;99913.75;;;7.66;100.00
7441;BME280;29616;51.950;8.572;2023-04-07T04:55:56;99902.88;;;7.76;100.00
7441;BME280;29616;51.950;8.572;2023-04-07T04:58:35;99912.31;;;7.81;100.00
7441;BME280;29616;51.950;8.572;2023-04-07T05:01:03;99911.78;;;7.87;100.00
7441;BME280;29616;51.950;8.572;2023-04-07T05:03:41;99912.50;;;7.89;100.00
7441;BME280;29616;51.950;8.572;2023-04-07T05:06:17;99909.78;;;7.89;100.00
7441;BME280;29616;51.950;8.572;2023-04-07T05:08:50;99918.09;;;7.98;100.00
7441;BME280;29616;51.950;8.572;2023-04-07T05:11:22;99915.53;;;8.06;100.00
7441;BME280;29616;51.950;8.572;2023-04-07T05:13:55;99911.50;;;8.10;100.00
7441;BME280;29616;51.950;8.572;2023-04-07T05:16:23;99910.94;;;8.06;100.00
7441;BME280;29616;51.950;8.572;2023-04-07T05:18:54;99917.97;;;8.18;100.00
7441;BME280;29616;51.950;8.572;2023-04-07T05:21:24;99914.09;;;8.11;100.00
7441;BME280;29616;51.950;8.572;2023-04-07T05:23:57;99920.38;;;8.12;100.00
7441;BME280;29616;51.950;8.572;2023-04-07T05:26:25;99912.38;;;8.10;100.00
7441;BME280;29616;51.950;8.572;2023-04-07T05:28:55;99920.38;;;8.12;100.00
7441;BME280;29616;51.950;8.572;2023-04-07T05:31:25;99918.84;;;8.28;100.00
7441;BME280;29616;51.950;8.572;2023-04-07T05:33:59;99923.25;;;8.10;100.00
7441;BME280;29616;51.950;8.572;2023-04-07T05:36:34;99921.84;;;8.16;100.00
7441;BME280;29616;51.950;8.572;2023-04-07T05:39:02;99928.69;;;8.10;100.00
7441;BME280;29616;51.950;8.572;2023-04-07T05:41:31;99930.72;;;8.18;100.00
7441;BME280;29616;51.950;8.572;2023-04-07T05:44:01;99924.69;;;8.05;100.00
7441;BME280;29616;51.950;8.572;2023-04-07T05:46:34;99930.00;;;8.06;100.00
7441;BME280;29616;51.950;8.572;2023-04-07T05:49:07;99938.44;;;8.03;100.00
7441;BME280;29616;51.950;8.572;2023-04-07T05:51:53;99931.53;;;7.99;100.00
7441;BME280;29616;51.950;8.572;2023-04-07T05:54:24;99936.16;;;8.08;100.00
7441;BME280;29616;51.950;8.572;2023-04-07T05:56:53;99940.72;;;8.08;100.00
7441;BME280;29616;51.950;8.572;2023-04-07T05:59:22;99936.88;;;8.10;100.00
7441;BME280;29616;51.950;8.572;2023-04-07T06:01:51;99939.75;;;8.09;100.00
7441;BME280;29616;51.950;8.572;2023-04-07T06:04:21;99940.59;;;8.19;100.00
7441;BME280;29616;51.950;8.572;2023-04-07T06:06:51;99940.88;;;8.06;100.00
7441;BME280;29616;51.950;8.572;2023-04-07T06:09:22;99946.25;;;8.27;100.00
7441;BME280;29616;51.950;8.572;2023-04-07T06:11:50;99958.81;;;8.18;100.00
7441;BME280;29616;51.950;8.572;2023-04-07T06:14:20;99955.72;;;8.32;100.00
7441;BME280;29616;51.950;8.572;2023-04-07T06:16:50;99961.44;;;8.48;100.00
7441;BME280;29616;51.950;8.572;2023-04-07T06:19:20;99964.31;;;8.37;100.00
7441;BME280;29616;51.950;8.572;2023-04-07T06:21:49;99958.16;;;8.45;100.00
7441;BME280;29616;51.950;8.572;2023-04-07T06:24:18;99966.31;;;8.64;100.00
7441;BME280;29616;51.950;8.572;2023-04-07T06:26:48;99962.88;;;8.62;100.00
7441;BME280;29616;51.950;8.572;2023-04-07T06:29:20;99957.69;;;8.78;100.00
7441;BME280;29616;51.950;8.572;2023-04-07T06:31:49;99966.19;;;8.75;100.00
7441;BME280;29616;51.950;8.572;2023-04-07T06:34:20;99971.78;;;8.64;100.00
7441;BME280;29616;51.950;8.572;2023-04-07T06:36:48;99964.28;;;8.76;100.00
7441;BME280;29616;51.950;8.572;2023-04-07T06:39:18;99966.44;;;8.82;100.00
7441;BME280;29616;51.950;8.572;2023-04-07T06:41:48;99968.84;;;8.94;100.00
7441;BME280;29616;51.950;8.572;2023-04-07T06:44:19;99969.97;;;9.11;100.00
7441;BME280;29616;51.950;8.572;2023-04-07T06:46:48;99976.13;;;9.23;100.00
7441;BME280;29616;51.950;8.572;2023-04-07T06:49:22;99963.91;;;9.27;100.00
7441;BME280;29616;51.950;8.572;2023-04-07T06:51:50;99967.16;;;9.40;100.00
7441;BME280;29616;51.950;8.572;2023-04-07T06:54:20;99973.66;;;9.39;100.00
7441;BME280;29616;51.950;8.572;2023-04-07T06:56:49;99984.44;;;9.31;100.00
7441;BME280;29616;51.950;8.572;2023-04-07T06:59:21;99979.94;;;9.49;100.00
7441;BME280;29616;51.950;8.572;2023-04-07T07:01:50;99981.50;;;9.51;100.00
7441;BME280;29616;51.950;8.572;2023-04-07T07:04:19;99978.78;;;9.51;100.00
7441;BME280;29616;51.950;8.572;2023-04-07T07:06:50;99984.00;;;9.72;100.00
7441;BME280;29616;51.950;8.572;2023-04-07T07:09:20;99987.41;;;9.84;100.00
7441;BME280;29616;51.950;8.572;2023-04-07T07:11:49;99984.25;;;9.79;100.00
7441;BME280;29616;51.950;8.572;2023-04-07T07:14:19;99989.16;;;9.75;100.00
7441;BME280;29616;51.950;8.572;2023-04-07T07:16:48;99988.13;;;10.13;100.00
7441;BME280;29616;51.950;8.572;2023-04-07T07:19:19;99984.94;;;10.17;100.00
7441;BME280;29616;51.950;8.572;2023-04-07T07:21:47;99983.72;;;10.47;100.00
7441;BME280;29616;51.950;8.572;2023-04-07T07:24:19;99989.69;;;10.15;100.00
7441;BME280;29616;51.950;8.572;2023-04-07T07:26:47;99997.09;;;10.50;100.00
7441;BME280;29616;51.950;8.572;2023-04-07T07:29:17;100002.09;;;10.72;100.00
7441;BME280;29616;51.950;8.572;2023-04-07T07:31:48;99990.38;;;10.80;100.00
7441;BME280;29616;51.950;8.572;2023-04-07T07:34:19;100000.66;;;10.86;100.00
7441;BME280;29616;51.950;8.572;2023-04-07T07:36:48;100006.75;;;10.98;100.00
7441;BME280;29616;51.950;8.572;2023-04-07T07:39:16;99998.66;;;10.88;100.00
7441;BME280;29616;51.950;8.572;2023-04-07T07:41:48;100006.31;;;10.84;100.00
7441;BME280;29616;51.950;8.572;2023-04-07T07:44:18;100005.84;;;10.89;100.00
7441;BME280;29616;51.950;8.572;2023-04-07T07:46:48;100004.66;;;10.91;100.00
7441;BME280;29616;51.950;8.572;2023-04-07T07:49:17;100013.03;;;10.90;100.00
7441;BME280;29616;51.950;8.572;2023-04-07T07:51:46;100015.03;;;11.06;100.00
7441;BME280;29616;51.950;8.572;2023-04-07T07:54:14;100015.28;;;11.12;100.00
7441;BME280;29616;51.950;8.572;2023-04-07T07:56:42;100014.41;;;11.12;100.00
7441;BME280;29616;51.950;8.572;2023-04-07T07:59:13;100022.13;;;11.16;100.00
7441;BME280;29616;51.950;8.572;2023-04-07T08:01:43;100024.84;;;11.34;100.00
7441;BME280;29616;51.950;8.572;2023-04-07T08:04:12;100029.28;;;11.35;100.00
7441;BME280;29616;51.950;8.572;2023-04-07T08:06:42;100032.91;;;11.35;100.00
7441;BME280;29616;51.950;8.572;2023-04-07T08:09:11;100024.13;;;11.32;100.00
7441;BME280;29616;51.950;8.572;2023-04-07T08:11:41;100035.13;;;11.57;100.00
7441;BME280;29616;51.950;8.572;2023-04-07T08:14:11;100036.38;;;11.45;100.00
7441;BME280;29616;51.950;8.572;2023-04-07T08:16:41;100027.06;;;11.56;100.00
7441;BME280;29616;51.950;8.572;2023-04-07T08:19:09;100029.75;;;11.99;100.00
7441;BME280;29616;51.950;8.572;2023-04-07T08:21:38;100035.53;;;11.96;100.00
7441;BME280;29616;51.950;8.572;2023-04-07T08:24:08;100033.81;;;11.95;100.00
7441;BME280;29616;51.950;8.572;2023-04-07T08:26:37;100040.38;;;12.02;100.00
7441;BME280;29616;51.950;8.572;2023-04-07T08:29:08;100037.69;;;12.10;100.00
7441;BME280;29616;51.950;8.572;2023-04-07T08:31:38;100039.38;;;12.11;100.00
7441;BME280;29616;51.950;8.572;2023-04-07T08:34:09;100043.06;;;11.94;100.00
7441;BME280;29616;51.950;8.572;2023-04-07T08:36:37;100047.78;;;11.84;100.00
7441;BME280;29616;51.950;8.572;2023-04-07T08:39:09;100050.91;;;11.89;100.00
7441;BME280;29616;51.950;8.572;2023-04-07T08:41:39;100054.72;;;11.96;100.00
7441;BME280;29616;51.950;8.572;2023-04-07T08:44:10;100053.44;;;12.16;100.00
7441;BME280;29616;51.950;8.572;2023-04-07T08:46:41;100047.72;;;12.44;100.00
7441;BME280;29616;51.950;8.572;2023-04-07T08:49:11;100053.00;;;12.29;100.00
7441;BME280;29616;51.950;8.572;2023-04-07T08:51:43;100055.28;;;12.42;100.00
7441;BME280;29616;51.950;8.572;2023-04-07T08:54:14;100056.28;;;12.41;100.00
7441;BME280;29616;51.950;8.572;2023-04-07T08:56:46;100058.72;;;12.52;100.00
7441;BME280;29616;51.950;8.572;2023-04-07T08:59:15;100054.09;;;12.52;100.00
7441;BME280;29616;51.950;8.572;2023-04-07T09:01:44;100057.69;;;12.45;100.00
7441;BME280;29616;51.950;8.572;2023-04-07T09:04:15;100056.44;;;12.89;100.00
7441;BME280;29616;51.950;8.572;2023-04-07T09:06:45;100064.38;;;13.08;100.00
7441;BME280;29616;51.950;8.572;2023-04-07T09:09:13;100064.53;;;13.07;100.00
7441;BME280;29616;51.950;8.572;2023-04-07T09:11:44;100061.69;;;12.66;100.00
7441;BME280;29616;51.950;8.572;2023-04-07T09:14:12;100062.25;;;12.86;100.00
7441;BME280;29616;51.950;8.572;2023-04-07T09:16:41;100072.91;;;13.05;100.00
7441;BME280;29616;51.950;8.572;2023-04-07T09:19:10;100079.06;;;12.91;100.00
7441;BME280;29616;51.950;8.572;2023-04-07T09:21:51;100073.88;;;12.72;100.00
7441;BME280;29616;51.950;8.572;2023-04-07T09:24:21;100069.47;;;12.87;100.00
7441;BME280;29616;51.950;8.572;2023-04-07T09:27:07;100081.59;;;12.27;100.00
7441;BME280;29616;51.950;8.572;2023-04-07T09:29:35;100078.56;;;12.46;100.00
7441;BME280;29616;51.950;8.572;2023-04-07T09:32:05;100063.41;;;12.67;100.00
7441;BME280;29616;51.950;8.572;2023-04-07T09:34:37;100068.38;;;12.64;100.00
7441;BME280;29616;51.950;8.572;2023-04-07T09:37:10;100070.41;;;12.62;100.00
7441;BME280;29616;51.950;8.572;2023-04-07T09:39:51;100075.28;;;12.92;100.00
7441;BME280;29616;51.950;8.572;2023-04-07T09:42:20;100079.94;;;13.00;100.00
7441;BME280;29616;51.950;8.572;2023-04-07T09:44:51;100067.75;;;13.02;100.00
7441;BME280;29616;51.950;8.572;2023-04-07T09:47:25;100072.19;;;12.87;100.00
7441;BME280;29616;51.950;8.572;2023-04-07T09:49:55;100076.13;;;12.85;100.00
7441;BME280;29616;51.950;8.572;2023-04-07T09:52:48;100087.38;;;12.65;100.00
7441;BME280;29616;51.950;8.572;2023-04-07T09:55:20;100085.81;;;12.55;100.00
7441;BME280;29616;51.950;8.572;2023-04-07T09:57:50;100082.44;;;12.69;100.00
7441;BME280;29616;51.950;8.572;2023-04-07T10:00:21;100081.53;;;12.52;100.00
7441;BME280;29616;51.950;8.572;2023-04-07T10:02:49;100075.50;;;12.49;100.00
7441;BME280;29616;51.950;8.572;2023-04-07T10:05:21;100081.56;;;12.68;100.00
7441;BME280;29616;51.950;8.572;2023-04-07T10:07:51;100091.94;;;12.91;100.00
7441;BME280;29616;51.950;8.572;2023-04-07T10:10:21;100086.72;;;12.71;100.00
7441;BME280;29616;51.950;8.572;2023-04-07T10:12:50;100080.19;;;12.72;100.00
7441;BME280;29616;51.950;8.572;2023-04-07T10:15:20;100092.81;;;12.49;100.00
7441;BME280;29616;51.950;8.572;2023-04-07T10:17:48;100090.66;;;12.69;100.00
7441;BME280;29616;51.950;8.572;2023-04-07T10:20:20;100098.88;;;12.61;100.00
7441;BME280;29616;51.950;8.572;2023-04-07T10:22:51;100086.88;;;12.70;100.00
7441;BME280;29616;51.950;8.572;2023-04-07T10:25:22;100102.03;;;12.90;100.00
7441;BME280;29616;51.950;8.572;2023-04-07T10:27:54;100105.19;;;13.11;100.00
7441;BME280;29616;51.950;8.572;2023-04-07T10:30:25;100110.53;;;13.37;100.00
7441;BME280;29616;51.950;8.572;2023-04-07T10:32:55;100100.78;;;13.51;100.00
7441;BME280;29616;51.950;8.572;2023-04-07T10:35:24;100109.84;;;13.91;100.00
7441;BME280;29616;51.950;8.572;2023-04-07T10:38:12;100100.22;;;13.79;100.00
7441;BME280;29616;51.950;8.572;2023-04-07T10:40:44;100106.56;;;14.04;100.00
7441;BME280;29616;51.950;8.572;2023-04-07T10:43:14;100101.66;;;14.30;100.00
7441;BME280;29616;51.950;8.572;2023-04-07T10:46:05;100106.31;;;14.30;100.00
7441;BME280;29616;51.950;8.572;2023-04-07T10:48:35;100108.56;;;14.34;100.00
7441;BME280;29616;51.950;8.572;2023-04-07T10:51:15;100102.31;;;14.48;100.00
7441;BME280;29616;51.950;8.572;2023-04-07T11:00:16;100120.78;;;14.16;100.00
7441;BME280;29616;51.950;8.572;2023-04-07T11:02:45;100123.19;;;14.11;100.00
7441;BME280;29616;51.950;8.572;2023-04-07T11:05:19;100114.91;;;14.35;100.00
7441;BME280;29616;51.950;8.572;2023-04-07T11:07:52;100111.41;;;14.57;100.00
7441;BME280;29616;51.950;8.572;2023-04-07T11:10:24;100115.63;;;14.76;100.00
7441;BME280;29616;51.950;8.572;2023-04-07T11:13:04;100115.41;;;14.77;100.00
7441;BME280;29616;51.950;8.572;2023-04-07T11:15:36;100113.00;;;14.82;100.00
7441;BME280;29616;51.950;8.572;2023-04-07T11:18:08;100123.13;;;14.90;100.00
7441;BME280;29616;51.950;8.572;2023-04-07T11:20:46;100117.66;;;15.35;100.00
7441;BME280;29616;51.950;8.572;2023-04-07T11:23:16;100116.50;;;15.30;100.00
7441;BME280;29616;51.950;8.572;2023-04-07T11:25:47;100120.28;;;15.59;100.00
7441;BME280;29616;51.950;8.572;2023-04-07T11:28:17;100107.78;;;15.49;100.00
7441;BME280;29616;51.950;8.572;2023-04-07T11:30:50;100131.88;;;15.47;100.00
7441;BME280;29616;51.950;8.572;2023-04-07T11:33:22;100120.00;;;16.06;100.00
7441;BME280;29616;51.950;8.572;2023-04-07T11:35:52;100129.28;;;15.91;100.00
7441;BME280;29616;51.950;8.572;2023-04-07T11:38:23;100122.38;;;16.09;100.00
7441;BME280;29616;51.950;8.572;2023-04-07T11:40:55;100129.13;;;16.07;100.00
7441;BME280;29616;51.950;8.572;2023-04-07T11:43:26;100130.38;;;15.67;100.00
7441;BME280;29616;51.950;8.572;2023-04-07T11:46:05;100122.34;;;15.57;100.00
7441;BME280;29616;51.950;8.572;2023-04-07T11:48:38;100126.81;;;15.05;100.00
7441;BME280;29616;51.950;8.572;2023-04-07T11:51:15;100132.59;;;14.87;100.00
7441;BME280;29616;51.950;8.572;2023-04-07T11:53:45;100119.91;;;14.78;100.00
7441;BME280;29616;51.950;8.572;2023-04-07T11:56:15;100136.84;;;14.98;100.00
7441;BME280;29616;51.950;8.572;2023-04-07T11:58:46;100124.06;;;15.05;100.00
7441;BME280;29616;51.950;8.572;2023-04-07T12:01:18;100119.56;;;15.04;100.00
7441;BME280;29616;51.950;8.572;2023-04-07T12:03:55;100113.59;;;15.54;100.00
7441;BME280;29616;51.950;8.572;2023-04-07T12:06:28;100126.63;;;15.97;100.00
7441;BME280;29616;51.950;8.572;2023-04-07T12:08:59;100135.59;;;16.14;100.00
7441;BME280;29616;51.950;8.572;2023-04-07T12:11:29;100138.00;;;15.80;100.00
7441;BME280;29616;51.950;8.572;2023-04-07T12:13:57;100126.91;;;16.02;100.00
7441;BME280;29616;51.950;8.572;2023-04-07T12:16:27;100142.50;;;15.95;100.00
7441;BME280;29616;51.950;8.572;2023-04-07T12:18:57;100139.09;;;15.70;100.00
7441;BME280;29616;51.950;8.572;2023-04-07T12:21:26;100139.66;;;15.43;100.00
7441;BME280;29616;51.950;8.572;2023-04-07T12:23:55;100139.50;;;15.37;100.00
7441;BME280;29616;51.950;8.572;2023-04-07T12:26:23;100143.78;;;15.16;100.00
7441;BME280;29616;51.950;8.572;2023-04-07T12:28:53;100145.41;;;15.03;100.00
7441;BME280;29616;51.950;8.572;2023-04-07T12:31:23;100149.22;;;14.94;100.00
7441;BME280;29616;51.950;8.572;2023-04-07T12:33:54;100144.88;;;14.69;100.00
7441;BME280;29616;51.950;8.572;2023-04-07T12:36:24;100156.84;;;14.84;100.00
7441;BME280;29616;51.950;8.572;2023-04-07T12:38:53;100154.16;;;14.68;100.00
7441;BME280;29616;51.950;8.572;2023-04-07T12:41:23;100159.91;;;14.50;100.00
7441;BME280;29616;51.950;8.572;2023-04-07T12:43:53;100154.44;;;14.26;100.00
7441;BME280;29616;51.950;8.572;2023-04-07T12:46:23;100161.84;;;14.17;100.00
7441;BME280;29616;51.950;8.572;2023-04-07T12:48:51;100167.00;;;14.04;100.00
7441;BME280;29616;51.950;8.572;2023-04-07T12:51:21;100163.38;;;14.20;100.00
7441;BME280;29616;51.950;8.572;2023-04-07T12:53:49;100172.84;;;13.85;100.00
7441;BME280;29616;51.950;8.572;2023-04-07T12:56:19;100171.97;;;14.09;100.00
7441;BME280;29616;51.950;8.572;2023-04-07T12:58:49;100172.81;;;14.25;100.00
7441;BME280;29616;51.950;8.572;2023-04-07T13:01:18;100175.22;;;14.36;100.00
7441;BME280;29616;51.950;8.572;2023-04-07T13:03:48;100167.66;;;14.38;100.00
7441;BME280;29616;51.950;8.572;2023-04-07T13:06:17;100154.81;;;14.70;100.00
7441;BME280;29616;51.950;8.572;2023-04-07T13:08:48;100151.66;;;14.89;100.00
7441;BME280;29616;51.950;8.572;2023-04-07T13:11:18;100161.28;;;14.93;100.00
7441;BME280;29616;51.950;8.572;2023-04-07T13:13:47;100155.91;;;14.99;100.00
7441;BME280;29616;51.950;8.572;2023-04-07T13:16:16;100158.78;;;15.37;100.00
7441;BME280;29616;51.950;8.572;2023-04-07T13:18:46;100152.16;;;15.23;100.00
7441;BME280;29616;51.950;8.572;2023-04-07T13:21:15;100144.25;;;15.51;100.00
7441;BME280;29616;51.950;8.572;2023-04-07T13:23:48;100148.25;;;15.48;100.00
7441;BME280;29616;51.950;8.572;2023-04-07T13:26:17;100159.94;;;15.50;100.00
7441;BME280;29616;51.950;8.572;2023-04-07T13:28:45;100144.44;;;15.49;100.00
7441;BME280;29616;51.950;8.572;2023-04-07T13:31:14;100160.81;;;15.43;100.00